createdAt,value
2019-04-09T00:00:50.529Z,13.91
2019-04-09T00:03:21.580Z,13.89
2019-04-09T00:05:53.340Z,13.84
2019-04-09T00:08:35.812Z,13.82
2019-04-09T00:11:13.464Z,13.97
2019-04-09T00:13:44.242Z,13.86
2019-04-09T00:16:14.972Z,13.79
2019-04-09T00:18:45.921Z,13.74
2019-04-09T00:21:16.621Z,13.75
2019-04-09T00:23:47.262Z,13.63
2019-04-09T00:26:17.955Z,13.58
2019-04-09T00:28:51.986Z,13.62
2019-04-09T00:31:25.709Z,13.56
2019-04-09T00:33:57.020Z,13.54
2019-04-09T00:36:28.083Z,13.48
2019-04-09T00:38:59.506Z,13.38
2019-04-09T00:41:30.181Z,13.30
2019-04-09T00:44:00.835Z,13.16
2019-04-09T00:46:31.908Z,13.33
2019-04-09T00:49:02.984Z,13.36
2019-04-09T00:51:33.715Z,13.22
2019-04-09T00:54:05.058Z,13.21
2019-04-09T00:56:35.967Z,13.19
2019-04-09T00:59:07.619Z,13.14
2019-04-09T01:01:38.795Z,13.08
2019-04-09T01:04:11.225Z,12.99
2019-04-09T01:06:46.169Z,12.99
2019-04-09T01:09:18.759Z,13.09
2019-04-09T01:11:49.952Z,12.91
2019-04-09T01:14:21.812Z,12.96
2019-04-09T01:16:54.205Z,13.02
2019-04-09T01:19:26.140Z,12.91
2019-04-09T01:21:56.953Z,12.82
2019-04-09T01:24:36.750Z,12.88
2019-04-09T01:27:16.392Z,12.74
2019-04-09T01:29:47.174Z,12.57
2019-04-09T01:32:21.425Z,12.66
2019-04-09T01:35:14.461Z,12.43
2019-04-09T01:38:10.237Z,12.48
2019-04-09T01:40:46.252Z,12.49
2019-04-09T01:43:34.220Z,12.44
2019-04-09T01:46:20.786Z,12.30
2019-04-09T01:48:53.071Z,12.46
2019-04-09T01:51:40.451Z,12.41
2019-04-09T01:54:23.683Z,12.41
2019-04-09T01:56:56.151Z,12.46
2019-04-09T01:59:43.503Z,12.57
2019-04-09T02:02:15.829Z,12.53
2019-04-09T02:04:48.631Z,12.53
2019-04-09T02:07:37.591Z,12.12
2019-04-09T02:10:12.059Z,12.16
2019-04-09T02:12:51.242Z,12.05
2019-04-09T02:15:47.818Z,12.00
2019-04-09T02:18:36.954Z,11.98
2019-04-09T02:21:20.245Z,11.99
2019-04-09T02:24:12.051Z,11.93
2019-04-09T02:26:59.567Z,11.84
2019-04-09T02:29:31.884Z,11.53
2019-04-09T02:32:07.385Z,11.56
2019-04-09T02:34:50.059Z,11.55
2019-04-09T02:37:28.360Z,11.42
2019-04-09T02:40:03.342Z,11.35
2019-04-09T02:42:35.653Z,11.43
2019-04-09T02:45:20.348Z,11.36
2019-04-09T02:47:55.494Z,11.23
2019-04-09T02:50:49.064Z,11.10
2019-04-09T02:53:21.297Z,11.18
2019-04-09T02:55:56.543Z,11.22
2019-04-09T02:58:45.266Z,10.89
2019-04-09T03:01:17.660Z,10.85
2019-04-09T03:03:50.197Z,10.96
2019-04-09T03:06:23.747Z,11.03
2019-04-09T03:08:56.149Z,11.01
2019-04-09T03:11:45.660Z,10.80
2019-04-09T03:14:27.061Z,10.54
2019-04-09T03:17:17.941Z,10.41
2019-04-09T03:20:06.499Z,10.58
2019-04-09T03:22:39.905Z,10.38
2019-04-09T03:25:12.165Z,10.45
2019-04-09T03:28:01.910Z,10.38
2019-04-09T03:30:28.534Z,10.19
2019-04-09T03:33:02.589Z,10.15
2019-04-09T03:35:35.900Z,10.17
2019-04-09T03:38:26.711Z,10.11
2019-04-09T03:40:59.029Z,10.03
2019-04-09T03:43:48.419Z,9.99
2019-04-09T03:46:20.967Z,10.03
2019-04-09T03:48:53.233Z,9.86
2019-04-09T03:51:33.377Z,10.00
2019-04-09T03:54:18.491Z,10.08
2019-04-09T03:57:06.404Z,10.21
2019-04-09T03:59:47.715Z,10.12
2019-04-09T04:02:34.040Z,10.08
2019-04-09T04:05:16.821Z,9.87
2019-04-09T04:07:50.637Z,9.80
2019-04-09T04:10:29.494Z,9.80
2019-04-09T04:13:02.040Z,9.70
2019-04-09T04:15:52.409Z,9.75
2019-04-09T04:18:32.403Z,9.68
2019-04-09T04:21:21.477Z,9.76
2019-04-09T04:24:00.213Z,9.69
2019-04-09T04:26:47.548Z,9.67
2019-04-09T04:29:19.828Z,9.77
2019-04-09T04:32:07.776Z,9.77
2019-04-09T04:34:59.680Z,9.81
2019-04-09T04:37:31.940Z,9.63
2019-04-09T04:40:04.188Z,9.52
2019-04-09T04:42:36.490Z,9.58
2019-04-09T04:45:09.402Z,9.70
2019-04-09T04:47:51.460Z,9.65
2019-04-09T04:50:26.592Z,9.78
2019-04-09T04:53:24.444Z,9.77
2019-04-09T04:56:26.699Z,9.81
2019-04-09T04:59:08.029Z,9.80
2019-04-09T05:01:46.548Z,9.68
2019-04-09T05:04:27.887Z,9.79
2019-04-09T05:07:17.361Z,9.72
2019-04-09T05:09:49.614Z,9.60
2019-04-09T05:12:30.134Z,9.47
2019-04-09T05:15:05.312Z,9.42
2019-04-09T05:17:49.733Z,9.35
2019-04-09T05:20:33.327Z,9.40
2019-04-09T05:23:13.640Z,9.34
2019-04-09T05:26:02.273Z,9.37
2019-04-09T05:28:50.708Z,9.21
2019-04-09T05:31:27.278Z,9.34
2019-04-09T05:34:28.196Z,9.09
2019-04-09T05:37:02.881Z,9.39
2019-04-09T05:39:48.535Z,9.42
2019-04-09T05:42:35.891Z,9.24
2019-04-09T05:45:09.594Z,9.19
2019-04-09T05:47:43.767Z,9.24
2019-04-09T05:50:30.044Z,9.13
2019-04-09T05:53:09.747Z,9.30
2019-04-09T05:55:58.528Z,9.13
2019-04-09T05:59:02.097Z,9.36
2019-04-09T06:01:39.531Z,9.37
2019-04-09T06:04:13.772Z,9.38
2019-04-09T06:06:51.969Z,9.07
2019-04-09T06:09:31.230Z,9.24
2019-04-09T06:12:08.664Z,9.02
2019-04-09T06:14:40.593Z,8.89
2019-04-09T06:17:11.567Z,8.99
2019-04-09T06:19:54.708Z,9.04
2019-04-09T06:22:27.299Z,9.23
2019-04-09T06:24:58.275Z,9.10
2019-04-09T06:27:29.893Z,9.04
2019-04-09T06:30:00.866Z,8.82
2019-04-09T06:32:33.440Z,8.85
2019-04-09T06:35:09.753Z,8.86
2019-04-09T06:37:53.478Z,8.94
2019-04-09T06:40:39.959Z,9.05
2019-04-09T06:43:15.340Z,8.99
2019-04-09T06:45:52.199Z,9.09
2019-04-09T06:48:26.609Z,9.16
2019-04-09T06:51:32.553Z,9.11
2019-04-09T06:54:08.620Z,9.15
2019-04-09T06:56:44.072Z,9.29
2019-04-09T06:59:35.572Z,9.27
2019-04-09T07:02:23.789Z,9.40
2019-04-09T07:05:05.674Z,9.18
2019-04-09T07:07:54.254Z,9.15
2019-04-09T07:10:40.367Z,9.29
2019-04-09T07:13:25.421Z,9.53
2019-04-09T07:16:05.488Z,9.51
2019-04-09T07:18:54.331Z,9.54
2019-04-09T07:21:33.918Z,9.64
2019-04-09T07:24:11.939Z,9.70
2019-04-09T07:26:48.874Z,9.74
2019-04-09T07:29:23.919Z,9.38
2019-04-09T07:32:00.473Z,9.61
2019-04-09T07:34:37.436Z,9.69
2019-04-09T07:37:12.040Z,9.65
2019-04-09T07:39:49.983Z,9.59
2019-04-09T07:42:22.405Z,9.62
2019-04-09T07:45:05.387Z,9.53
2019-04-09T07:47:39.152Z,9.43
2019-04-09T07:50:13.161Z,9.59
2019-04-09T07:52:45.308Z,9.51
2019-04-09T07:55:27.092Z,9.49
2019-04-09T07:57:59.427Z,9.34
2019-04-09T08:00:45.856Z,9.45
2019-04-09T08:03:30.600Z,9.56
2019-04-09T08:06:19.810Z,9.47
2019-04-09T08:09:08.799Z,9.54
2019-04-09T08:11:42.465Z,9.60
2019-04-09T08:14:16.286Z,9.77
2019-04-09T08:16:56.979Z,9.64
2019-04-09T08:19:41.101Z,9.51
2019-04-09T08:22:16.260Z,9.86
2019-04-09T08:25:06.391Z,9.72
2019-04-09T08:27:51.082Z,9.43
2019-04-09T08:30:28.537Z,9.73
2019-04-09T08:33:07.925Z,9.87
2019-04-09T08:35:41.637Z,9.99
2019-04-09T08:38:27.500Z,10.06
2019-04-09T08:41:12.779Z,9.86
2019-04-09T08:44:14.412Z,10.09
2019-04-09T08:46:48.421Z,9.96
2019-04-09T08:49:30.808Z,9.95
2019-04-09T08:52:17.237Z,10.24
2019-04-09T08:54:54.186Z,10.24
2019-04-09T08:57:25.315Z,10.39
2019-04-09T09:00:11.783Z,10.22
2019-04-09T09:02:49.504Z,10.40
2019-04-09T09:05:33.045Z,10.38
2019-04-09T09:08:08.994Z,10.46
2019-04-09T09:10:41.515Z,10.56
2019-04-09T09:13:21.068Z,10.43
2019-04-09T09:16:11.858Z,10.43
2019-04-09T09:18:56.784Z,10.49
2019-04-09T09:21:37.966Z,10.50
2019-04-09T09:24:25.914Z,10.62
2019-04-09T09:27:16.504Z,10.61
2019-04-09T09:29:56.273Z,10.79
2019-04-09T09:32:49.041Z,10.98
2019-04-09T09:35:31.915Z,10.97
2019-04-09T09:38:04.946Z,10.99
2019-04-09T09:40:45.685Z,11.21
2019-04-09T09:43:20.461Z,11.30
2019-04-09T09:46:02.233Z,11.34
2019-04-09T09:48:40.532Z,11.48
2019-04-09T09:51:16.135Z,11.54
2019-04-09T09:53:48.622Z,11.48
2019-04-09T09:56:32.828Z,11.61
2019-04-09T09:59:10.293Z,11.74
2019-04-09T10:02:02.085Z,11.80
2019-04-09T10:04:39.609Z,11.88
2019-04-09T10:07:41.099Z,11.91
2019-04-09T10:10:26.948Z,12.02
2019-04-09T10:13:04.941Z,12.09
2019-04-09T10:15:40.925Z,12.33
2019-04-09T10:18:22.387Z,12.35
2019-04-09T10:21:15.795Z,12.58
2019-04-09T10:23:55.689Z,12.60
2019-04-09T10:30:04.971Z,12.60
2019-04-09T10:32:48.169Z,12.71
2019-04-09T10:35:28.156Z,13.01
2019-04-09T10:38:10.260Z,12.86
2019-04-09T10:40:55.301Z,13.02
2019-04-09T10:43:28.440Z,13.06
2019-04-09T10:46:10.847Z,12.98
2019-04-09T10:48:48.672Z,13.14
2019-04-09T10:51:31.375Z,13.29
2019-04-09T10:54:14.705Z,13.17
2019-04-09T10:56:54.253Z,13.05
2019-04-09T10:59:51.590Z,13.16
2019-04-09T11:02:30.724Z,13.43
2019-04-09T11:05:04.214Z,13.76
2019-04-09T11:07:40.728Z,13.78
2019-04-09T11:10:20.517Z,13.81
2019-04-09T11:13:05.655Z,13.85
2019-04-09T11:15:58.122Z,13.71
2019-04-09T11:18:32.577Z,13.85
2019-04-09T11:21:20.996Z,13.96
2019-04-09T11:23:56.791Z,14.12
2019-04-09T11:26:36.990Z,14.21
2019-04-09T11:29:12.237Z,14.21
2019-04-09T11:32:06.726Z,14.00
2019-04-09T11:34:45.930Z,14.11
2019-04-09T11:37:35.606Z,14.04
2019-04-09T11:40:10.755Z,14.04
2019-04-09T11:42:58.470Z,14.03
2019-04-09T11:45:43.983Z,14.17
2019-04-09T11:48:29.778Z,14.29
2019-04-09T11:51:21.501Z,14.15
2019-04-09T11:54:06.260Z,14.08
2019-04-09T11:56:44.679Z,14.13
2019-04-09T11:59:31.288Z,14.18
2019-04-09T12:02:26.630Z,14.24
2019-04-09T12:05:18.410Z,14.39
2019-04-09T12:07:52.524Z,14.28
2019-04-09T12:10:28.120Z,14.23
2019-04-09T12:13:08.502Z,14.43
2019-04-09T12:16:10.328Z,14.51
2019-04-09T12:18:52.515Z,14.52
2019-04-09T12:21:40.557Z,14.46
2019-04-09T12:24:15.723Z,14.60
2019-04-09T12:27:05.170Z,14.62
2019-04-09T12:30:03.673Z,14.68
2019-04-09T12:32:52.329Z,14.86
2019-04-09T12:35:40.521Z,14.87
2019-04-09T12:38:15.760Z,14.85
2019-04-09T12:40:55.311Z,14.72
2019-04-09T12:43:46.514Z,14.85
2019-04-09T12:46:19.311Z,14.76
2019-04-09T12:49:06.230Z,14.59
2019-04-09T12:51:47.009Z,14.50
2019-04-09T12:54:19.450Z,14.80
2019-04-09T12:57:10.072Z,14.91
2019-04-09T12:59:48.170Z,15.01
2019-04-09T13:02:41.374Z,15.16
2019-04-09T13:05:20.752Z,15.21
2019-04-09T13:07:55.712Z,15.24
2019-04-09T13:10:29.613Z,15.19
2019-04-09T13:13:04.802Z,15.40
2019-04-09T13:15:46.167Z,15.47
2019-04-09T13:18:35.459Z,15.47
2019-04-09T13:21:27.398Z,15.56
2019-04-09T13:24:03.012Z,15.59
2019-04-09T13:26:44.146Z,15.55
2019-04-09T13:29:33.384Z,15.70
2019-04-09T13:32:08.101Z,15.90
2019-04-09T13:34:40.472Z,15.82
2019-04-09T13:37:19.470Z,15.73
2019-04-09T13:43:11.383Z,15.78
2019-04-09T13:45:46.626Z,15.55
2019-04-09T13:48:30.912Z,15.63
2019-04-09T13:51:03.617Z,15.72
2019-04-09T13:53:37.246Z,15.83
2019-04-09T13:56:11.113Z,15.97
2019-04-09T13:58:41.784Z,15.82
2019-04-09T14:01:12.540Z,15.67
2019-04-09T14:03:57.092Z,15.66
2019-04-09T14:06:28.781Z,15.61
2019-04-09T14:08:59.498Z,15.77
2019-04-09T14:11:30.452Z,15.85
2019-04-09T14:14:01.118Z,15.99
2019-04-09T14:16:32.098Z,16.15
2019-04-09T14:19:07.421Z,15.96
2019-04-09T14:21:42.507Z,15.73
2019-04-09T14:24:18.600Z,15.45
2019-04-09T14:26:53.490Z,15.56
2019-04-09T14:29:26.176Z,15.47
2019-04-09T14:32:00.174Z,15.51
2019-04-09T14:34:30.882Z,15.62
2019-04-09T14:37:01.547Z,15.52
2019-04-09T14:39:44.540Z,15.44
2019-04-09T14:42:44.906Z,15.35
2019-04-09T14:45:17.572Z,15.21
2019-04-09T14:47:48.685Z,15.27
2019-04-09T14:50:22.002Z,15.32
2019-04-09T14:52:59.755Z,15.40
2019-04-09T14:55:25.652Z,15.41
2019-04-09T14:57:56.949Z,15.29
2019-04-09T15:00:30.861Z,15.36
2019-04-09T15:03:28.870Z,15.25
2019-04-09T15:06:06.643Z,15.25
2019-04-09T15:08:37.736Z,15.36
2019-04-09T15:11:11.440Z,15.28
2019-04-09T15:13:57.585Z,15.34
2019-04-09T15:16:32.339Z,15.28
2019-04-09T15:19:18.279Z,15.31
2019-04-09T15:21:59.951Z,15.28
2019-04-09T15:24:32.289Z,15.35
2019-04-09T15:27:03.372Z,15.25
2019-04-09T15:29:45.746Z,15.23
2019-04-09T15:32:17.715Z,15.24
2019-04-09T15:34:49.600Z,15.32
2019-04-09T15:37:21.885Z,15.26
2019-04-09T15:39:54.443Z,15.14
2019-04-09T15:42:27.772Z,14.97
2019-04-09T15:44:58.793Z,14.96
2019-04-09T15:47:29.606Z,14.87
2019-04-09T15:50:07.712Z,14.86
2019-04-09T15:52:38.409Z,14.87
2019-04-09T15:55:12.618Z,14.60
2019-04-09T15:57:50.118Z,14.66
2019-04-09T16:00:20.843Z,14.74
2019-04-09T16:02:53.662Z,14.67
2019-04-09T16:05:24.381Z,14.65
2019-04-09T16:07:56.170Z,14.41
2019-04-09T16:10:33.180Z,14.22
2019-04-09T16:13:08.457Z,14.34
2019-04-09T16:15:39.355Z,14.31
2019-04-09T16:18:10.513Z,14.35
2019-04-09T16:20:41.258Z,14.29
2019-04-09T16:23:11.989Z,14.22
2019-04-09T16:25:42.740Z,14.32
2019-04-09T16:28:17.558Z,14.22
2019-04-09T16:30:48.291Z,14.35
2019-04-09T16:33:22.669Z,14.38
2019-04-09T16:35:53.693Z,14.18
2019-04-09T16:38:28.162Z,14.12
2019-04-09T16:40:59.383Z,14.10
2019-04-09T16:43:31.153Z,14.05
2019-04-09T16:46:14.922Z,14.10
2019-04-09T16:48:45.524Z,14.11
2019-04-09T16:51:16.187Z,14.14
2019-04-09T16:53:51.829Z,14.02
2019-04-09T16:56:23.375Z,14.02
2019-04-09T16:58:57.588Z,14.08
2019-04-09T17:01:28.374Z,14.12
2019-04-09T17:04:12.249Z,14.16
2019-04-09T17:06:31.454Z,13.87
2019-04-09T17:09:24.348Z,14.00
2019-04-09T17:11:42.328Z,13.83
2019-04-09T17:14:14.421Z,13.99
2019-04-09T17:16:45.519Z,13.91
2019-04-09T17:19:17.152Z,13.91
2019-04-09T17:21:48.052Z,13.73
2019-04-09T17:24:20.902Z,13.79
2019-04-09T17:26:58.490Z,13.84
2019-04-09T17:29:35.710Z,13.66
2019-04-09T17:32:07.318Z,13.59
2019-04-09T17:34:39.555Z,13.58
2019-04-09T17:37:22.528Z,13.54
2019-04-09T17:40:05.064Z,13.38
2019-04-09T17:42:32.152Z,13.40
2019-04-09T17:45:03.949Z,13.47
2019-04-09T17:47:36.860Z,13.45
2019-04-09T17:50:09.417Z,13.24
2019-04-09T17:52:47.574Z,13.27
2019-04-09T17:55:23.204Z,13.32
2019-04-09T17:57:54.983Z,13.29
2019-04-09T18:00:29.044Z,13.18
2019-04-09T18:03:00.733Z,13.14
2019-04-09T18:05:32.035Z,13.19
2019-04-09T18:08:05.316Z,13.21
2019-04-09T18:10:37.283Z,13.17
2019-04-09T18:13:09.670Z,13.18
2019-04-09T18:15:42.008Z,13.17
2019-04-09T18:18:16.549Z,13.05
2019-04-09T18:20:54.337Z,13.10
2019-04-09T18:23:26.729Z,12.92
2019-04-09T18:26:09.144Z,12.90
2019-04-09T18:28:38.887Z,12.69
2019-04-09T18:31:28.967Z,12.73
2019-04-09T18:33:54.554Z,12.83
2019-04-09T18:36:26.275Z,12.84
2019-04-09T18:38:59.621Z,12.88
2019-04-09T18:41:32.485Z,12.83
2019-04-09T18:44:06.601Z,12.67
2019-04-09T18:46:47.293Z,12.76
2019-04-09T18:49:19.405Z,12.63
2019-04-09T18:51:51.091Z,12.71
2019-04-09T18:54:24.505Z,12.69
2019-04-09T18:56:57.599Z,12.45
2019-04-09T18:59:32.909Z,12.52
2019-04-09T19:02:03.804Z,12.64
2019-04-09T19:04:36.135Z,12.57
2019-04-09T19:07:13.721Z,12.53
2019-04-09T19:09:44.786Z,12.61
2019-04-09T19:12:16.329Z,12.37
2019-04-09T19:14:50.468Z,12.49
2019-04-09T19:17:23.765Z,12.58
2019-04-09T19:19:56.581Z,12.61
2019-04-09T19:22:35.820Z,12.58
2019-04-09T19:25:15.699Z,12.51
2019-04-09T19:27:57.730Z,12.58
2019-04-09T19:30:36.433Z,12.42
2019-04-09T19:33:08.074Z,12.40
2019-04-09T19:35:41.873Z,12.28
2019-04-09T19:38:15.147Z,12.14
2019-04-09T19:40:46.702Z,12.18
2019-04-09T19:43:17.771Z,12.12
2019-04-09T19:45:51.979Z,12.22
2019-04-09T19:48:22.926Z,12.21
2019-04-09T19:50:54.324Z,12.15
2019-04-09T19:53:26.380Z,12.06
2019-04-09T19:56:13.769Z,12.06
2019-04-09T19:58:49.745Z,12.07
2019-04-09T20:01:19.907Z,12.01
2019-04-09T20:03:53.035Z,12.09
2019-04-09T20:06:27.883Z,11.92
2019-04-09T20:09:01.274Z,11.78
2019-04-09T20:11:36.096Z,11.93
2019-04-09T20:14:07.090Z,11.80
2019-04-09T20:16:39.345Z,11.74
2019-04-09T20:19:10.897Z,11.82
2019-04-09T20:21:46.391Z,11.82
2019-04-09T20:24:18.582Z,11.74
2019-04-09T20:26:50.589Z,11.82
2019-04-09T20:29:22.281Z,11.71
2019-04-09T20:31:54.568Z,11.56
2019-04-09T20:34:26.014Z,11.59
2019-04-09T20:36:59.021Z,11.55
2019-04-09T20:39:37.306Z,11.61
2019-04-09T20:42:03.188Z,11.57
2019-04-09T20:44:34.479Z,11.77
2019-04-09T20:47:06.605Z,11.75
2019-04-09T20:49:44.705Z,11.80
2019-04-09T20:52:15.801Z,11.60
2019-04-09T20:54:51.261Z,11.78
2019-04-09T20:57:22.283Z,11.69
2019-04-09T21:00:13.041Z,11.61
2019-04-09T21:02:48.837Z,11.37
2019-04-09T21:05:20.614Z,11.54
2019-04-09T21:07:51.394Z,11.43
2019-04-09T21:10:23.125Z,11.23
2019-04-09T21:12:54.782Z,11.41
2019-04-09T21:15:26.191Z,11.27
2019-04-09T21:17:56.904Z,11.28
2019-04-09T21:20:28.850Z,11.23
2019-04-09T21:23:01.429Z,11.10
2019-04-09T21:25:37.487Z,11.19
2019-04-09T21:28:08.897Z,11.19
2019-04-09T21:30:39.946Z,10.96
2019-04-09T21:33:11.026Z,10.97
2019-04-09T21:35:41.695Z,11.06
2019-04-09T21:38:20.084Z,11.18
2019-04-09T21:40:51.839Z,10.97
2019-04-09T21:43:23.522Z,11.01
2019-04-09T21:45:54.879Z,11.01
2019-04-09T21:48:45.341Z,11.00
2019-04-09T21:51:17.579Z,10.95
2019-04-09T21:53:48.302Z,10.97
2019-04-09T21:56:19.380Z,10.89
2019-04-09T21:58:55.893Z,11.00
2019-04-09T22:01:29.264Z,10.97
2019-04-09T22:04:05.781Z,11.00
2019-04-09T22:06:38.662Z,10.98
2019-04-09T22:09:13.378Z,10.77
2019-04-09T22:11:44.905Z,10.56
2019-04-09T22:14:17.213Z,10.69
2019-04-09T22:17:01.481Z,10.62
2019-04-09T22:19:33.124Z,10.76
2019-04-09T22:22:11.358Z,10.69
2019-04-09T22:24:42.286Z,10.35
2019-04-09T22:27:31.276Z,10.41
2019-04-09T22:30:04.310Z,10.47
2019-04-09T22:32:35.168Z,10.42
2019-04-09T22:35:22.071Z,10.26
2019-04-09T22:37:53.896Z,10.25
2019-04-09T22:40:33.629Z,10.41
2019-04-09T22:43:04.541Z,10.35
2019-04-09T22:45:36.364Z,10.20
2019-04-09T22:48:15.808Z,10.20
2019-04-09T22:50:50.410Z,10.07
2019-04-09T22:53:22.637Z,9.88
2019-04-09T22:55:54.469Z,10.05
2019-04-09T22:58:29.340Z,10.07
2019-04-09T23:01:12.825Z,10.17
2019-04-09T23:04:07.369Z,9.99
2019-04-09T23:06:56.942Z,9.76
2019-04-09T23:09:47.021Z,9.59
2019-04-09T23:12:25.722Z,9.42
2019-04-09T23:15:05.225Z,9.52
2019-04-09T23:17:35.885Z,9.66
2019-04-09T23:20:14.588Z,9.71
2019-04-09T23:22:48.724Z,9.49
2019-04-09T23:25:20.295Z,9.71
2019-04-09T23:27:51.162Z,9.75
2019-04-09T23:30:21.882Z,9.76
2019-04-09T23:32:54.585Z,9.80
2019-04-09T23:35:34.954Z,9.70
2019-04-09T23:38:16.662Z,9.73
2019-04-09T23:40:51.402Z,9.57
2019-04-09T23:43:22.130Z,9.47
2019-04-09T23:45:54.820Z,9.42
2019-04-09T23:48:26.238Z,9.20
2019-04-09T23:50:56.923Z,9.04
2019-04-09T23:53:27.708Z,9.15
2019-04-09T23:55:58.945Z,8.99
2019-04-09T23:58:29.780Z,8.96
